sensor_id;sensor_type;location;lat;lon;timestamp;temperature;humidity
33149;DHT22;19506;51.040;3.856;2023-02-01T15:32:35;17.80;99.90
33149;DHT22;19506;51.040;3.856;2023-02-01T15:35:01;17.80;99.90
33149;DHT22;19506;51.040;3.856;2023-02-01T15:37:28;17.90;99.90
33149;DHT22;19506;51.040;3.856;2023-02-01T15:42:49;18.10;99.90
33149;DHT22;19506;51.040;3.856;2023-02-01T15:45:28;18.20;99.90
33149;DHT22;19506;51.040;3.856;2023-02-01T15:47:57;18.40;99.90
33149;DHT22;19506;51.040;3.856;2023-02-01T15:50:23;18.50;99.90
33149;DHT22;19506;51.040;3.856;2023-02-01T15:52:53;18.70;99.90
33149;DHT22;19506;51.040;3.856;2023-02-01T15:55:22;18.80;99.90
33149;DHT22;19506;51.040;3.856;2023-02-01T15:57:49;18.90;99.90
33149;DHT22;19506;51.040;3.856;2023-02-01T16:00:24;18.90;99.90
33149;DHT22;19506;51.040;3.856;2023-02-01T16:02:55;19.00;99.90
33149;DHT22;19506;51.040;3.856;2023-02-01T16:05:33;19.10;99.90
33149;DHT22;19506;51.040;3.856;2023-02-01T16:08:10;19.10;99.90
33149;DHT22;19506;51.040;3.856;2023-02-01T16:10:41;19.10;99.90
33149;DHT22;19506;51.040;3.856;2023-02-01T16:13:07;19.10;99.90
33149;DHT22;19506;51.040;3.856;2023-02-01T16:15:33;19.00;99.90
33149;DHT22;19506;51.040;3.856;2023-02-01T16:18:00;19.00;99.90
33149;DHT22;19506;51.040;3.856;2023-02-01T16:20:26;19.00;99.90
33149;DHT22;19506;51.040;3.856;2023-02-01T16:22:51;19.00;99.90
33149;DHT22;19506;51.040;3.856;2023-02-01T16:25:17;19.00;99.90
33149;DHT22;19506;51.040;3.856;2023-02-01T16:27:43;19.00;99.90
33149;DHT22;19506;51.040;3.856;2023-02-01T16:30:09;19.00;99.90
33149;DHT22;19506;51.040;3.856;2023-02-01T16:32:36;19.00;99.90
33149;DHT22;19506;51.040;3.856;2023-02-01T16:35:15;18.90;99.90
33149;DHT22;19506;51.040;3.856;2023-02-01T16:37:44;18.90;99.90
33149;DHT22;19506;51.040;3.856;2023-02-01T16:40:17;18.80;99.90
33149;DHT22;19506;51.040;3.856;2023-02-01T16:42:45;18.80;99.90
33149;DHT22;19506;51.040;3.856;2023-02-01T16:45:11;18.70;99.90
33149;DHT22;19506;51.040;3.856;2023-02-01T16:47:38;18.70;99.90
33149;DHT22;19506;51.040;3.856;2023-02-01T16:50:15;18.70;99.90
33149;DHT22;19506;51.040;3.856;2023-02-01T16:52:42;18.70;99.90
33149;DHT22;19506;51.040;3.856;2023-02-01T16:55:15;18.70;99.90
33149;DHT22;19506;51.040;3.856;2023-02-01T16:57:42;18.80;99.90
33149;DHT22;19506;51.040;3.856;2023-02-01T17:00:11;18.80;99.90
33149;DHT22;19506;51.040;3.856;2023-02-01T17:02:38;18.90;99.90
33149;DHT22;19506;51.040;3.856;2023-02-01T17:05:05;18.80;99.90
33149;DHT22;19506;51.040;3.856;2023-02-01T17:07:31;18.80;99.90
33149;DHT22;19506;51.040;3.856;2023-02-01T17:09:57;18.80;99.90
33149;DHT22;19506;51.040;3.856;2023-02-01T17:12:30;18.90;99.90
33149;DHT22;19506;51.040;3.856;2023-02-01T17:14:57;18.90;99.90
33149;DHT22;19506;51.040;3.856;2023-02-01T17:17:25;19.00;99.90
33149;DHT22;19506;51.040;3.856;2023-02-01T17:19:52;19.00;99.90
33149;DHT22;19506;51.040;3.856;2023-02-01T17:22:22;19.00;99.90
33149;DHT22;19506;51.040;3.856;2023-02-01T17:24:48;19.10;99.90
33149;DHT22;19506;51.040;3.856;2023-02-01T17:27:14;19.00;99.90
33149;DHT22;19506;51.040;3.856;2023-02-01T17:29:40;19.00;99.90
33149;DHT22;19506;51.040;3.856;2023-02-01T17:32:20;18.90;99.90
33149;DHT22;19506;51.040;3.856;2023-02-01T17:34:46;18.90;99.90
33149;DHT22;19506;51.040;3.856;2023-02-01T17:39:52;18.70;99.90
33149;DHT22;19506;51.040;3.856;2023-02-01T17:42:21;18.60;99.90
33149;DHT22;19506;51.040;3.856;2023-02-01T17:44:47;18.50;99.90
33149;DHT22;19506;51.040;3.856;2023-02-01T17:47:12;18.40;99.90
33149;DHT22;19506;51.040;3.856;2023-02-01T17:49:38;18.40;99.90
33149;DHT22;19506;51.040;3.856;2023-02-01T17:52:04;18.40;99.90
33149;DHT22;19506;51.040;3.856;2023-02-01T17:54:31;18.30;99.90
33149;DHT22;19506;51.040;3.856;2023-02-01T17:56:56;18.30;99.90
33149;DHT22;19506;51.040;3.856;2023-02-01T17:59:27;18.30;99.90
33149;DHT22;19506;51.040;3.856;2023-02-01T18:01:53;18.30;99.90
33149;DHT22;19506;51.040;3.856;2023-02-01T18:04:25;18.30;99.90
33149;DHT22;19506;51.040;3.856;2023-02-01T18:06:50;18.30;99.90
33149;DHT22;19506;51.040;3.856;2023-02-01T18:09:16;18.30;99.90
33149;DHT22;19506;51.040;3.856;2023-02-01T18:11:42;18.30;99.90
33149;DHT22;19506;51.040;3.856;2023-02-01T18:14:11;18.30;99.90
33149;DHT22;19506;51.040;3.856;2023-02-01T18:16:38;18.40;99.90
33149;DHT22;19506;51.040;3.856;2023-02-01T18:19:04;18.50;99.90
33149;DHT22;19506;51.040;3.856;2023-02-01T18:21:42;18.60;99.90
33149;DHT22;19506;51.040;3.856;2023-02-01T18:24:11;18.70;99.90
33149;DHT22;19506;51.040;3.856;2023-02-01T18:26:39;18.80;99.90
33149;DHT22;19506;51.040;3.856;2023-02-01T18:29:04;18.90;99.90
33149;DHT22;19506;51.040;3.856;2023-02-01T18:31:31;19.00;99.90
33149;DHT22;19506;51.040;3.856;2023-02-01T18:33:59;19.00;99.90
33149;DHT22;19506;51.040;3.856;2023-02-01T18:36:25;19.00;99.90
33149;DHT22;19506;51.040;3.856;2023-02-01T18:38:51;19.00;99.90
33149;DHT22;19506;51.040;3.856;2023-02-01T18:41:21;19.00;99.90
33149;DHT22;19506;51.040;3.856;2023-02-01T18:43:49;19.00;99.90
33149;DHT22;19506;51.040;3.856;2023-02-01T18:46:15;19.00;99.90
33149;DHT22;19506;51.040;3.856;2023-02-01T18:48:42;19.00;99.90
33149;DHT22;19506;51.040;3.856;2023-02-01T18:51:10;19.00;99.90
33149;DHT22;19506;51.040;3.856;2023-02-01T18:53:37;19.00;99.90
33149;DHT22;19506;51.040;3.856;2023-02-01T18:56:03;19.00;99.90
33149;DHT22;19506;51.040;3.856;2023-02-01T18:58:28;19.00;99.90
33149;DHT22;19506;51.040;3.856;2023-02-01T19:00:57;19.00;99.90
33149;DHT22;19506;51.040;3.856;2023-02-01T19:03:23;19.00;99.90
33149;DHT22;19506;51.040;3.856;2023-02-01T19:05:56;19.00;99.90
33149;DHT22;19506;51.040;3.856;2023-02-01T19:08:23;19.00;99.90
33149;DHT22;19506;51.040;3.856;2023-02-01T19:10:50;19.00;99.90
33149;DHT22;19506;51.040;3.856;2023-02-01T19:13:16;19.00;99.90
33149;DHT22;19506;51.040;3.856;2023-02-01T19:15:45;19.00;99.90
33149;DHT22;19506;51.040;3.856;2023-02-01T19:18:11;18.90;99.90
33149;DHT22;19506;51.040;3.856;2023-02-01T19:20:37;18.90;99.90
33149;DHT22;19506;51.040;3.856;2023-02-01T19:23:10;18.90;99.90
33149;DHT22;19506;51.040;3.856;2023-02-01T19:25:36;18.90;99.90
33149;DHT22;19506;51.040;3.856;2023-02-01T19:28:02;18.80;99.90
33149;DHT22;19506;51.040;3.856;2023-02-01T19:30:28;18.80;99.90
33149;DHT22;19506;51.040;3.856;2023-02-01T19:32:54;18.80;99.90
33149;DHT22;19506;51.040;3.856;2023-02-01T19:35:20;18.80;99.90
33149;DHT22;19506;51.040;3.856;2023-02-01T19:37:47;18.70;99.90
33149;DHT22;19506;51.040;3.856;2023-02-01T19:40:16;18.70;99.90
33149;DHT22;19506;51.040;3.856;2023-02-01T19:42:42;18.60;99.90
33149;DHT22;19506;51.040;3.856;2023-02-01T19:45:08;18.60;99.90
33149;DHT22;19506;51.040;3.856;2023-02-01T19:47:34;18.60;99.90
33149;DHT22;19506;51.040;3.856;2023-02-01T19:49:59;18.60;99.90
33149;DHT22;19506;51.040;3.856;2023-02-01T19:52:25;18.70;99.90
33149;DHT22;19506;51.040;3.856;2023-02-01T19:54:51;18.60;99.90
33149;DHT22;19506;51.040;3.856;2023-02-01T19:57:17;18.60;99.90
33149;DHT22;19506;51.040;3.856;2023-02-01T19:59:42;18.80;99.90
33149;DHT22;19506;51.040;3.856;2023-02-01T20:02:17;18.90;99.90
33149;DHT22;19506;51.040;3.856;2023-02-01T20:04:43;19.00;99.90
33149;DHT22;19506;51.040;3.856;2023-02-01T20:07:09;19.10;99.90
33149;DHT22;19506;51.040;3.856;2023-02-01T20:09:38;19.20;99.90
33149;DHT22;19506;51.040;3.856;2023-02-01T20:12:07;19.30;99.90
33149;DHT22;19506;51.040;3.856;2023-02-01T20:14:33;19.20;99.90
33149;DHT22;19506;51.040;3.856;2023-02-01T20:16:58;19.30;99.90
33149;DHT22;19506;51.040;3.856;2023-02-01T20:19:24;19.20;99.90
33149;DHT22;19506;51.040;3.856;2023-02-01T20:21:50;19.30;99.90
33149;DHT22;19506;51.040;3.856;2023-02-01T20:24:17;19.30;99.90
33149;DHT22;19506;51.040;3.856;2023-02-01T20:26:44;19.30;99.90
33149;DHT22;19506;51.040;3.856;2023-02-01T20:29:10;19.20;99.90
33149;DHT22;19506;51.040;3.856;2023-02-01T20:31:36;19.30;99.90
33149;DHT22;19506;51.040;3.856;2023-02-01T20:34:01;19.20;99.90
33149;DHT22;19506;51.040;3.856;2023-02-01T20:36:29;19.20;99.90
33149;DHT22;19506;51.040;3.856;2023-02-01T20:38:56;19.20;99.90
33149;DHT22;19506;51.040;3.856;2023-02-01T20:41:22;19.20;99.90
33149;DHT22;19506;51.040;3.856;2023-02-01T20:43:48;19.20;99.90
33149;DHT22;19506;51.040;3.856;2023-02-01T20:46:14;19.20;99.90
33149;DHT22;19506;51.040;3.856;2023-02-01T20:48:45;19.20;99.90
33149;DHT22;19506;51.040;3.856;2023-02-01T20:51:12;19.20;99.90
33149;DHT22;19506;51.040;3.856;2023-02-01T20:53:39;19.20;99.90
